createdAt,value
2023-02-14T00:01:09.072Z,20.98
2023-02-14T00:03:37.863Z,18.85
2023-02-14T00:06:12.233Z,21.25
2023-02-14T00:08:40.930Z,19.63
2023-02-14T00:11:08.914Z,19.30
2023-02-14T00:13:35.388Z,19.38
2023-02-14T00:16:01.908Z,19.90
2023-02-14T00:18:48.314Z,22.45
2023-02-14T00:21:14.965Z,20.97
2023-02-14T00:23:43.421Z,16.58
2023-02-14T00:26:17.086Z,24.58
2023-02-14T00:28:43.491Z,43.42
2023-02-14T00:31:10.065Z,21.80
2023-02-14T00:33:36.875Z,19.67
2023-02-14T00:36:06.864Z,18.80
2023-02-14T00:38:33.806Z,16.70
2023-02-14T00:41:00.529Z,15.52
2023-02-14T00:43:27.066Z,14.82
2023-02-14T00:45:53.513Z,13.17
2023-02-14T00:48:20.943Z,11.52
2023-02-14T00:50:47.336Z,10.85
2023-02-14T00:53:15.778Z,10.30
2023-02-14T00:55:45.637Z,9.68
2023-02-14T00:58:13.217Z,11.63
2023-02-14T01:00:39.698Z,14.13
2023-02-14T01:03:06.134Z,16.08
2023-02-14T01:05:33.639Z,15.90
2023-02-14T01:08:00.005Z,16.75
2023-02-14T01:10:26.401Z,15.47
2023-02-14T01:12:52.787Z,15.40
2023-02-14T01:15:27.923Z,15.70
2023-02-14T01:17:54.300Z,14.70
2023-02-14T01:20:20.683Z,14.60
2023-02-14T01:22:47.135Z,13.93
2023-02-14T01:25:14.592Z,13.30
2023-02-14T01:27:41.105Z,13.57
2023-02-14T01:30:08.323Z,12.63
2023-02-14T01:32:38.857Z,12.02
2023-02-14T01:35:05.500Z,11.67
2023-02-14T01:37:32.996Z,11.68
2023-02-14T01:39:59.671Z,11.45
2023-02-14T01:42:26.309Z,11.15
2023-02-14T01:44:56.705Z,11.32
2023-02-14T01:47:24.319Z,12.23
2023-02-14T01:49:55.821Z,10.48
2023-02-14T01:52:27.955Z,11.25
2023-02-14T01:54:59.449Z,11.10
2023-02-14T01:57:31.837Z,11.45
2023-02-14T02:00:20.292Z,11.63
2023-02-14T02:02:47.104Z,11.27
2023-02-14T02:05:15.799Z,11.60
2023-02-14T02:07:42.717Z,11.25
2023-02-14T02:10:16.336Z,12.00
2023-02-14T02:12:50.474Z,10.60
2023-02-14T02:15:17.010Z,13.30
2023-02-14T02:18:09.284Z,12.43
2023-02-14T02:21:03.246Z,11.32
2023-02-14T02:23:38.687Z,11.82
2023-02-14T02:26:26.286Z,9.97
2023-02-14T02:28:55.759Z,10.50
2023-02-14T02:31:51.057Z,11.35
2023-02-14T02:35:01.486Z,9.63
2023-02-14T02:37:56.576Z,10.20
2023-02-14T02:40:42.708Z,10.97
2023-02-14T02:43:50.135Z,9.57
2023-02-14T02:46:41.754Z,10.40
2023-02-14T02:49:59.065Z,8.73
2023-02-14T02:53:03.724Z,10.05
2023-02-14T02:56:17.788Z,9.30
2023-02-14T02:58:54.459Z,9.70
2023-02-14T03:01:26.278Z,9.77
2023-02-14T03:04:18.993Z,9.63
2023-02-14T03:06:50.703Z,10.60
2023-02-14T03:09:20.101Z,10.23
2023-02-14T03:12:10.667Z,9.40
2023-02-14T03:14:50.058Z,8.88
2023-02-14T03:17:28.807Z,10.23
2023-02-14T03:20:14.749Z,9.88
2023-02-14T03:22:54.575Z,9.47
2023-02-14T03:25:39.481Z,9.80
2023-02-14T03:28:45.729Z,8.75
2023-02-14T03:31:38.485Z,10.20
2023-02-14T03:34:15.146Z,9.73
2023-02-14T03:36:52.389Z,9.03
2023-02-14T03:39:51.535Z,10.05
2023-02-14T03:42:30.505Z,9.82
2023-02-14T03:45:00.394Z,8.77
2023-02-14T03:47:32.530Z,8.77
2023-02-14T03:50:11.111Z,8.40
2023-02-14T03:52:39.029Z,8.70
2023-02-14T03:55:07.683Z,8.75
2023-02-14T03:57:54.323Z,8.00
2023-02-14T04:00:20.958Z,10.30
2023-02-14T04:03:02.057Z,9.20
2023-02-14T04:05:28.599Z,8.93
2023-02-14T04:07:57.632Z,9.38
2023-02-14T04:10:24.894Z,9.25
2023-02-14T04:12:52.698Z,8.80
2023-02-14T04:15:19.155Z,9.00
2023-02-14T04:18:03.980Z,8.75
2023-02-14T04:20:30.596Z,8.00
2023-02-14T04:22:57.613Z,9.75
2023-02-14T04:25:31.201Z,9.48
2023-02-14T04:27:57.653Z,9.07
2023-02-14T04:30:24.121Z,9.25
2023-02-14T04:32:50.660Z,8.90
2023-02-14T04:35:17.174Z,8.65
2023-02-14T04:37:43.582Z,8.65
2023-02-14T04:40:10.669Z,8.43
2023-02-14T04:42:37.055Z,8.95
2023-02-14T04:45:04.427Z,10.10
2023-02-14T04:47:31.038Z,8.35
2023-02-14T04:49:57.628Z,8.50
2023-02-14T04:52:24.039Z,9.07
2023-02-14T04:54:50.405Z,8.70
2023-02-14T04:57:16.798Z,9.07
2023-02-14T04:59:43.196Z,8.45
2023-02-14T05:02:09.696Z,8.73
2023-02-14T05:04:37.308Z,8.37
2023-02-14T05:07:03.950Z,8.70
2023-02-14T05:09:30.400Z,9.43
2023-02-14T05:11:58.814Z,8.77
2023-02-14T05:14:28.463Z,8.93
2023-02-14T05:16:54.975Z,8.47
2023-02-14T05:19:21.388Z,9.45
2023-02-14T05:21:47.877Z,8.88
2023-02-14T05:24:14.284Z,8.68
2023-02-14T05:26:42.759Z,8.82
2023-02-14T05:29:09.219Z,8.10
2023-02-14T05:32:10.804Z,8.73
2023-02-14T05:34:37.268Z,8.27
2023-02-14T05:37:03.711Z,8.50
2023-02-14T05:39:30.093Z,8.65
2023-02-14T05:42:10.731Z,8.83
2023-02-14T05:44:37.094Z,8.43
2023-02-14T05:47:03.795Z,8.77
2023-02-14T05:49:30.168Z,8.88
2023-02-14T05:52:00.841Z,9.07
2023-02-14T05:54:27.301Z,9.40
2023-02-14T05:56:59.955Z,8.70
2023-02-14T05:59:33.551Z,10.10
2023-02-14T06:02:00.024Z,8.45
2023-02-14T06:04:27.501Z,9.13
2023-02-14T06:06:53.925Z,8.87
2023-02-14T06:09:20.330Z,9.27
2023-02-14T06:11:46.807Z,9.75
2023-02-14T06:14:13.310Z,9.68
2023-02-14T06:16:39.955Z,10.20
2023-02-14T06:19:06.452Z,9.53
2023-02-14T06:21:32.882Z,9.80
2023-02-14T06:23:59.254Z,8.88
2023-02-14T06:26:27.898Z,9.38
2023-02-14T06:28:55.570Z,9.20
2023-02-14T06:31:22.543Z,8.97
2023-02-14T06:33:58.403Z,9.20
2023-02-14T06:36:28.072Z,10.30
2023-02-14T06:38:56.609Z,9.27
2023-02-14T06:41:33.987Z,10.38
2023-02-14T06:44:00.382Z,10.23
2023-02-14T06:46:26.924Z,10.80
2023-02-14T06:48:57.447Z,10.82
2023-02-14T06:51:32.159Z,11.27
2023-02-14T06:53:58.598Z,12.18
2023-02-14T06:56:24.976Z,10.30
2023-02-14T06:58:51.371Z,11.18
2023-02-14T07:01:17.873Z,13.15
2023-02-14T07:03:58.614Z,11.70
2023-02-14T07:06:36.672Z,11.38
2023-02-14T07:09:09.523Z,10.97
2023-02-14T07:11:39.047Z,12.05
2023-02-14T07:14:05.457Z,10.40
2023-02-14T07:16:31.975Z,10.70
2023-02-14T07:18:58.443Z,10.57
2023-02-14T07:21:24.848Z,10.17
2023-02-14T07:23:51.290Z,10.75
2023-02-14T07:26:18.309Z,11.02
2023-02-14T07:28:49.179Z,10.52
2023-02-14T07:31:17.115Z,10.43
2023-02-14T07:33:44.001Z,11.77
2023-02-14T07:36:10.570Z,11.48
2023-02-14T07:38:37.228Z,12.02
2023-02-14T07:41:04.349Z,11.00
2023-02-14T07:43:30.907Z,11.80
2023-02-14T07:45:57.397Z,11.47
2023-02-14T07:48:25.218Z,11.45
2023-02-14T07:50:51.692Z,11.82
2023-02-14T07:53:18.194Z,12.23
2023-02-14T07:55:49.272Z,11.82
2023-02-14T07:58:15.619Z,12.90
2023-02-14T08:00:42.278Z,11.23
2023-02-14T08:03:08.855Z,12.52
2023-02-14T08:05:36.043Z,11.65
2023-02-14T08:08:02.486Z,12.25
2023-02-14T08:10:28.861Z,11.23
2023-02-14T08:13:01.453Z,11.68
2023-02-14T08:15:51.154Z,11.57
2023-02-14T08:18:18.805Z,12.30
2023-02-14T08:20:46.625Z,12.65
2023-02-14T08:23:13.160Z,11.80
2023-02-14T08:25:39.843Z,11.75
2023-02-14T08:28:06.901Z,12.13
2023-02-14T08:30:37.675Z,12.00
2023-02-14T08:33:05.266Z,12.88
2023-02-14T08:35:31.716Z,11.57
2023-02-14T08:37:58.316Z,10.80
2023-02-14T08:40:37.091Z,12.50
2023-02-14T08:43:07.443Z,12.73
2023-02-14T08:45:34.227Z,12.93
2023-02-14T08:48:06.278Z,11.27
2023-02-14T08:50:33.197Z,13.15
2023-02-14T08:52:59.665Z,13.25
2023-02-14T08:55:27.607Z,14.60
2023-02-14T08:57:58.096Z,14.32
2023-02-14T09:00:24.762Z,15.87
2023-02-14T09:02:52.593Z,15.02
2023-02-14T09:05:20.922Z,15.23
2023-02-14T09:07:47.327Z,16.08
2023-02-14T09:10:13.738Z,16.00
2023-02-14T09:12:41.863Z,16.97
2023-02-14T09:15:09.658Z,15.93
2023-02-14T09:17:37.340Z,16.42
2023-02-14T09:20:08.431Z,15.63
2023-02-14T09:22:34.874Z,14.98
2023-02-14T09:25:01.469Z,15.10
2023-02-14T09:27:28.237Z,14.98
2023-02-14T09:29:54.642Z,15.85
2023-02-14T09:32:21.198Z,14.45
2023-02-14T09:35:06.209Z,16.10
2023-02-14T09:37:51.126Z,15.27
2023-02-14T09:40:20.067Z,15.38
2023-02-14T09:43:16.800Z,16.77
2023-02-14T09:45:50.473Z,15.68
2023-02-14T09:48:33.897Z,15.88
2023-02-14T09:51:05.335Z,15.17
2023-02-14T09:53:39.420Z,14.10
2023-02-14T09:56:16.804Z,15.35
2023-02-14T09:59:27.415Z,15.95
2023-02-14T10:02:09.370Z,14.88
2023-02-14T10:04:58.725Z,14.97
2023-02-14T10:07:50.269Z,16.13
2023-02-14T10:10:25.433Z,15.95
2023-02-14T10:12:59.498Z,15.48
2023-02-14T10:15:30.427Z,14.95
2023-02-14T10:18:02.755Z,13.50
2023-02-14T10:20:34.948Z,13.95
2023-02-14T10:23:27.880Z,15.82
2023-02-14T10:26:01.030Z,13.85
2023-02-14T10:28:35.448Z,13.73
2023-02-14T10:31:15.507Z,13.73
2023-02-14T10:33:45.055Z,12.05
2023-02-14T10:36:33.172Z,14.50
2023-02-14T10:39:50.360Z,14.35
2023-02-14T10:42:22.815Z,13.88
2023-02-14T10:45:04.703Z,14.57
2023-02-14T10:47:46.896Z,13.00
2023-02-14T10:50:24.469Z,14.23
2023-02-14T10:53:01.271Z,13.40
2023-02-14T10:55:56.969Z,14.13
2023-02-14T10:58:26.613Z,13.03
2023-02-14T11:01:10.037Z,13.60
2023-02-14T11:03:43.851Z,14.00
2023-02-14T11:06:10.972Z,14.70
2023-02-14T11:08:40.253Z,14.27
2023-02-14T11:11:15.635Z,13.33
2023-02-14T11:13:42.567Z,15.20
2023-02-14T11:16:12.634Z,13.10
2023-02-14T11:18:41.010Z,13.63
2023-02-14T11:21:11.135Z,14.40
2023-02-14T11:23:39.390Z,14.23
2023-02-14T11:26:15.474Z,14.77
2023-02-14T11:29:12.814Z,14.32
2023-02-14T11:31:41.876Z,14.10
2023-02-14T11:34:34.018Z,14.02
2023-02-14T11:37:00.722Z,14.37
2023-02-14T11:39:34.732Z,13.70
2023-02-14T11:42:04.540Z,14.00
2023-02-14T11:44:34.100Z,13.88
2023-02-14T11:47:41.395Z,14.48
2023-02-14T11:50:25.925Z,13.50
2023-02-14T11:52:55.285Z,14.23
2023-02-14T11:55:28.544Z,13.55
2023-02-14T11:57:56.518Z,13.73
2023-02-14T12:00:27.021Z,13.10
2023-02-14T12:02:54.099Z,12.93
2023-02-14T12:05:46.972Z,14.38
2023-02-14T12:08:13.537Z,13.35
2023-02-14T12:10:42.064Z,12.82
2023-02-14T12:13:08.461Z,12.75
2023-02-14T12:15:38.119Z,13.40
2023-02-14T12:18:16.703Z,13.85
2023-02-14T12:20:55.525Z,13.85
2023-02-14T12:23:45.244Z,12.90
2023-02-14T12:26:27.727Z,13.75
2023-02-14T12:29:17.793Z,11.70
2023-02-14T12:31:46.579Z,13.48
2023-02-14T12:34:14.691Z,12.63
2023-02-14T12:37:11.893Z,12.50
2023-02-14T12:39:59.976Z,13.15
2023-02-14T12:42:44.779Z,12.00
2023-02-14T12:45:30.823Z,12.40
2023-02-14T12:48:22.773Z,13.55
2023-02-14T12:51:04.719Z,13.43
2023-02-14T12:54:00.659Z,13.93
2023-02-14T12:56:49.926Z,12.43
2023-02-14T12:59:43.690Z,13.13
2023-02-14T13:02:29.007Z,13.10
2023-02-14T13:05:20.554Z,12.90
2023-02-14T13:08:03.738Z,14.05
2023-02-14T13:10:55.920Z,13.47
2023-02-14T13:13:33.450Z,12.32
2023-02-14T13:16:23.830Z,13.00
2023-02-14T13:19:19.438Z,12.85
2023-02-14T13:21:47.996Z,14.10
2023-02-14T13:24:28.857Z,12.33
2023-02-14T13:27:01.951Z,12.75
2023-02-14T13:29:36.781Z,13.43
2023-02-14T13:32:04.547Z,12.70
2023-02-14T13:34:39.174Z,12.30
2023-02-14T13:37:11.452Z,12.00
2023-02-14T13:39:43.113Z,12.18
2023-02-14T13:42:10.746Z,12.40
2023-02-14T13:44:48.989Z,12.63
2023-02-14T13:47:24.177Z,12.55
2023-02-14T13:50:00.272Z,12.20
2023-02-14T13:52:46.929Z,11.80
2023-02-14T13:55:20.604Z,12.50
2023-02-14T13:58:00.416Z,11.23
2023-02-14T14:00:46.977Z,11.43
2023-02-14T14:03:28.954Z,11.17
2023-02-14T14:06:06.981Z,12.52
2023-02-14T14:08:56.140Z,12.70
2023-02-14T14:11:22.476Z,12.80
2023-02-14T14:13:55.219Z,12.13
2023-02-14T14:16:27.963Z,12.20
2023-02-14T14:19:09.308Z,11.15
2023-02-14T14:21:41.694Z,11.48
2023-02-14T14:24:33.084Z,11.48
2023-02-14T14:27:22.656Z,11.55
2023-02-14T14:30:18.433Z,11.13
2023-02-14T14:32:45.455Z,11.40
2023-02-14T14:35:23.855Z,11.57
2023-02-14T14:37:55.823Z,10.73
2023-02-14T14:40:29.643Z,10.95
2023-02-14T14:43:01.771Z,11.53
2023-02-14T14:45:31.484Z,10.80
2023-02-14T14:48:00.405Z,12.00
2023-02-14T14:50:33.151Z,11.48
2023-02-14T14:53:25.181Z,11.63
2023-02-14T14:55:52.375Z,11.63
2023-02-14T14:58:36.591Z,12.30
2023-02-14T15:01:04.875Z,11.48
2023-02-14T15:03:31.817Z,11.77
2023-02-14T15:06:14.751Z,12.07
2023-02-14T15:08:41.215Z,12.60
2023-02-14T15:11:10.968Z,11.82
2023-02-14T15:13:53.875Z,12.15
2023-02-14T15:16:28.020Z,12.85
2023-02-14T15:18:59.478Z,11.77
2023-02-14T15:21:26.543Z,11.90
2023-02-14T15:23:54.045Z,11.25
2023-02-14T15:26:32.910Z,12.75
2023-02-14T15:29:01.809Z,12.88
2023-02-14T15:31:32.850Z,13.88
2023-02-14T15:34:01.379Z,12.53
2023-02-14T15:36:28.444Z,12.05
2023-02-14T15:38:57.315Z,11.68
2023-02-14T15:41:25.045Z,11.32
2023-02-14T15:43:54.009Z,12.48
2023-02-14T15:46:39.200Z,11.50
2023-02-14T15:49:09.293Z,12.00
2023-02-14T15:51:36.507Z,11.85
2023-02-14T15:54:17.711Z,12.10
2023-02-14T15:56:48.994Z,12.90
2023-02-14T15:59:22.470Z,13.23
2023-02-14T16:02:30.026Z,12.73
2023-02-14T16:05:04.279Z,11.73
2023-02-14T16:07:30.664Z,11.32
2023-02-14T16:10:29.560Z,12.90
2023-02-14T16:12:59.257Z,11.60
2023-02-14T16:15:29.076Z,11.40
2023-02-14T16:17:55.867Z,12.10
2023-02-14T16:20:39.887Z,12.50
2023-02-14T16:23:27.809Z,12.43
2023-02-14T16:25:57.456Z,12.03
2023-02-14T16:28:23.922Z,13.45
2023-02-14T16:30:56.212Z,13.00
2023-02-14T16:33:26.864Z,13.98
2023-02-14T16:35:54.515Z,13.63
2023-02-14T16:38:21.803Z,13.60
2023-02-14T16:40:51.096Z,13.35
2023-02-14T16:43:19.276Z,13.40
2023-02-14T16:45:46.444Z,13.20
2023-02-14T16:48:15.745Z,13.52
2023-02-14T16:50:43.094Z,12.23
2023-02-14T16:53:27.967Z,14.25
2023-02-14T16:55:56.887Z,14.40
2023-02-14T16:58:30.013Z,14.05
2023-02-14T17:00:58.595Z,14.45
2023-02-14T17:03:25.271Z,13.40
2023-02-14T17:05:51.917Z,14.23
2023-02-14T17:08:18.710Z,14.82
2023-02-14T17:10:48.552Z,14.63
2023-02-14T17:13:19.556Z,14.40
2023-02-14T17:15:46.001Z,14.10
2023-02-14T17:18:15.468Z,13.95
2023-02-14T17:20:42.017Z,15.10
2023-02-14T17:23:08.932Z,15.05
2023-02-14T17:25:35.522Z,14.90
2023-02-14T17:28:01.939Z,14.57
2023-02-14T17:30:28.545Z,15.00
2023-02-14T17:32:55.042Z,16.08
2023-02-14T17:35:21.595Z,15.45
2023-02-14T17:37:48.140Z,15.65
2023-02-14T17:40:14.987Z,14.87
2023-02-14T17:42:41.836Z,14.55
2023-02-14T17:45:11.747Z,16.55
2023-02-14T17:47:39.690Z,15.52
2023-02-14T17:50:06.850Z,15.23
2023-02-14T17:52:33.319Z,15.10
2023-02-14T17:55:00.107Z,16.10
2023-02-14T17:57:26.572Z,16.42
2023-02-14T17:59:53.549Z,15.43
2023-02-14T18:02:20.081Z,17.10
2023-02-14T18:04:48.254Z,16.33
2023-02-14T18:07:14.741Z,16.45
2023-02-14T18:09:41.170Z,16.10
2023-02-14T18:12:09.349Z,15.77
2023-02-14T18:14:37.568Z,16.40
2023-02-14T18:17:04.449Z,16.53
2023-02-14T18:19:30.852Z,17.85
2023-02-14T18:21:57.350Z,18.75
2023-02-14T18:24:23.861Z,18.30
2023-02-14T18:26:50.269Z,17.73
2023-02-14T18:29:22.756Z,17.83
2023-02-14T18:32:04.784Z,18.85
2023-02-14T18:34:54.791Z,19.42
2023-02-14T18:37:21.330Z,19.13
2023-02-14T18:39:49.797Z,19.17
2023-02-14T18:42:16.573Z,17.83
2023-02-14T18:44:52.148Z,19.98
2023-02-14T18:47:18.638Z,18.60
2023-02-14T18:49:46.186Z,17.58
2023-02-14T18:52:14.066Z,17.33
2023-02-14T18:54:40.592Z,18.30
2023-02-14T18:57:08.212Z,18.42
2023-02-14T18:59:43.129Z,19.70
2023-02-14T19:02:14.076Z,18.10
2023-02-14T19:04:44.790Z,20.10
2023-02-14T19:07:11.482Z,20.43
2023-02-14T19:09:40.089Z,19.25
2023-02-14T19:12:07.196Z,20.42
2023-02-14T19:14:33.661Z,20.13
2023-02-14T19:17:00.003Z,19.75
2023-02-14T19:19:26.397Z,18.37
2023-02-14T19:21:53.197Z,19.58
2023-02-14T19:24:20.227Z,20.08
2023-02-14T19:26:47.066Z,19.67
2023-02-14T19:29:16.107Z,21.50
2023-02-14T19:31:45.049Z,20.70
2023-02-14T19:34:20.109Z,18.77
2023-02-14T19:36:47.971Z,20.05
2023-02-14T19:39:14.835Z,19.48
2023-02-14T19:41:41.845Z,17.95
2023-02-14T19:44:10.484Z,20.40
2023-02-14T19:46:38.247Z,20.20
2023-02-14T19:49:04.699Z,22.17
2023-02-14T19:51:34.114Z,19.95
2023-02-14T19:54:02.236Z,19.67
2023-02-14T19:56:31.364Z,18.83
2023-02-14T19:58:58.068Z,19.70
2023-02-14T20:01:33.590Z,20.10
2023-02-14T20:04:00.717Z,21.35
2023-02-14T20:06:29.194Z,21.92
2023-02-14T20:08:55.962Z,23.80
2023-02-14T20:11:29.848Z,24.85
2023-02-14T20:13:56.768Z,24.45
2023-02-14T20:16:24.617Z,24.20
2023-02-14T20:18:51.675Z,24.42
2023-02-14T20:21:19.437Z,23.77
2023-02-14T20:23:45.788Z,24.95
2023-02-14T20:26:14.779Z,25.13
2023-02-14T20:28:43.206Z,23.48
2023-02-14T20:31:12.102Z,24.20
2023-02-14T20:33:38.945Z,23.03
2023-02-14T20:36:06.854Z,22.98
2023-02-14T20:38:34.334Z,23.85
2023-02-14T20:41:05.783Z,22.92
2023-02-14T20:43:32.265Z,23.70
2023-02-14T20:46:02.715Z,21.93
2023-02-14T20:48:35.553Z,23.10
2023-02-14T20:51:16.863Z,23.58
2023-02-14T20:54:19.520Z,23.38
2023-02-14T20:56:46.493Z,23.60
2023-02-14T20:59:24.334Z,23.63
2023-02-14T21:01:51.441Z,23.02
2023-02-14T21:04:18.996Z,23.92
2023-02-14T21:06:45.541Z,24.20
2023-02-14T21:09:12.031Z,24.58
2023-02-14T21:11:42.505Z,23.73
2023-02-14T21:14:11.814Z,23.75
2023-02-14T21:16:39.424Z,24.95
2023-02-14T21:19:09.968Z,23.85
2023-02-14T21:21:38.869Z,24.20
2023-02-14T21:24:15.409Z,23.00
2023-02-14T21:26:42.707Z,22.23
2023-02-14T21:29:10.342Z,22.77
2023-02-14T21:31:43.905Z,20.52
2023-02-14T21:34:15.152Z,21.92
2023-02-14T21:36:41.930Z,20.93
2023-02-14T21:39:25.450Z,22.15
2023-02-14T21:41:51.820Z,22.15
2023-02-14T21:44:44.797Z,21.50
2023-02-14T21:47:11.287Z,22.45
2023-02-14T21:49:58.290Z,22.73
2023-02-14T21:52:53.559Z,22.20
2023-02-14T21:55:20.089Z,24.85
2023-02-14T21:57:46.575Z,24.60
2023-02-14T22:00:13.271Z,25.23
2023-02-14T22:02:51.110Z,21.83
2023-02-14T22:05:17.760Z,22.48
2023-02-14T22:07:45.139Z,23.13
2023-02-14T22:10:13.761Z,20.95
2023-02-14T22:12:44.325Z,22.77
2023-02-14T22:15:16.820Z,22.50
2023-02-14T22:17:43.302Z,22.20
2023-02-14T22:20:10.410Z,23.90
2023-02-14T22:22:36.846Z,22.13
2023-02-14T22:25:04.530Z,21.75
2023-02-14T22:27:32.026Z,21.13
2023-02-14T22:30:09.729Z,19.20
2023-02-14T22:32:38.206Z,19.25
2023-02-14T22:35:04.763Z,19.25
2023-02-14T22:37:38.175Z,19.27
2023-02-14T22:40:05.991Z,16.27
2023-02-14T22:42:33.489Z,15.68
2023-02-14T22:45:07.378Z,15.52
2023-02-14T22:47:33.778Z,13.05
2023-02-14T22:50:01.326Z,14.32
2023-02-14T22:52:27.911Z,14.53
2023-02-14T22:54:54.275Z,15.02
2023-02-14T22:57:21.806Z,15.80
2023-02-14T22:59:49.245Z,12.90
2023-02-14T23:02:15.881Z,12.50
2023-02-14T23:04:42.401Z,12.20
2023-02-14T23:07:13.273Z,12.95
2023-02-14T23:09:39.632Z,12.25
2023-02-14T23:12:26.085Z,12.05
2023-02-14T23:15:29.078Z,11.73
2023-02-14T23:18:14.388Z,13.53
2023-02-14T23:21:01.167Z,14.23
2023-02-14T23:23:33.438Z,14.43
2023-02-14T23:26:10.039Z,16.13
2023-02-14T23:28:36.551Z,16.85
2023-02-14T23:31:02.972Z,15.87
2023-02-14T23:33:29.399Z,15.05
2023-02-14T23:35:55.811Z,15.57
2023-02-14T23:38:27.394Z,14.55
2023-02-14T23:41:13.778Z,14.75
2023-02-14T23:43:42.176Z,14.67
2023-02-14T23:46:08.626Z,15.27
2023-02-14T23:48:38.239Z,15.70
2023-02-14T23:51:05.102Z,16.20
2023-02-14T23:53:31.500Z,14.70
2023-02-14T23:56:01.705Z,14.10
2023-02-14T23:58:33.381Z,15.23
